Time;durP1;ratioP1;P1;durP2;ratioP2;P2;SDS_P1;SDS_P2;PMS_P1;PMS_P2;Temp;Humidity;BMP_temperature;BMP_pressure;BME280_temperature;BME280_humidity;BME280_pressure;Samples;Min_cycle;Max_cycle;Signal;HPM_P1;HPM_P2
2023/12/12 00:00:57;;;;;;;7.27;1.27;;;;;;;9.35;91.88;148489.84;5004821;28;20234;-57
2023/12/12 00:03:24;;;;;;;6.37;1.13;;;;;;;9.29;91.97;148477.41;5007266;28;20227;-56
2023/12/12 00:05:52;;;;;;;6.63;1.20;;;;;;;9.22;92.43;148458.72;5005367;28;20238;-56
2023/12/12 00:08:18;;;;;;;5.70;1.37;;;;;;;9.14;93.09;148440.06;5006464;28;20243;-57
2023/12/12 00:10:45;;;;;;;9.53;1.50;;;;;;;9.09;93.08;148428.84;5004759;28;23322;-54
2023/12/12 00:13:11;;;;;;;6.17;1.67;;;;;;;8.99;93.30;148405.25;5007284;28;20236;-57
2023/12/12 00:15:38;;;;;;;8.30;1.80;;;;;;;9.06;94.55;148420.16;5004279;28;20243;-57
2023/12/12 00:18:05;;;;;;;6.90;1.30;;;;;;;9.08;94.02;148426.38;5007254;28;20590;-57
2023/12/12 00:20:31;;;;;;;11.23;1.13;;;;;;;9.08;94.26;148426.38;5003492;28;20223;-56
2023/12/12 00:23:00;;;;;;;5.50;1.77;;;;;;;9.24;94.96;148463.69;5006597;28;20571;-54
2023/12/12 00:25:26;;;;;;;3.83;1.50;;;;;;;9.23;95.01;148462.47;5003299;28;20641;-57
2023/12/12 00:27:53;;;;;;;9.33;1.60;;;;;;;9.25;94.90;148467.47;5005093;28;20258;-57
2023/12/12 00:30:20;;;;;;;5.50;1.33;;;;;;;9.26;95.60;148469.94;5006486;28;20229;-57
2023/12/12 00:32:46;;;;;;;8.27;1.57;;;;;;;9.35;93.74;148489.84;5003919;28;20241;-56
2023/12/12 00:35:13;;;;;;;4.93;1.13;;;;;;;9.34;93.21;148487.38;5005998;28;20599;-57
2023/12/12 00:37:39;;;;;;;3.87;1.03;;;;;;;9.32;94.10;148483.59;5003190;28;20233;-56
2023/12/12 00:40:10;;;;;;;6.23;1.30;;;;;;;9.30;95.11;148478.63;5004810;28;20605;-56
2023/12/12 00:42:37;;;;;;;6.27;1.10;;;;;;;9.30;94.51;148479.91;5001139;28;20253;-56
2023/12/12 00:45:06;;;;;;;6.07;1.03;;;;;;;9.27;94.85;148472.44;5005929;28;20325;-57
2023/12/12 00:47:32;;;;;;;3.87;1.20;;;;;;;9.26;94.56;148469.94;5002808;28;20234;-57
2023/12/12 00:49:59;;;;;;;4.67;1.50;;;;;;;9.33;94.66;148486.09;5006053;28;20235;-57
2023/12/12 00:52:26;;;;;;;6.33;1.93;;;;;;;9.21;95.16;148456.22;5003062;28;20583;-57
2023/12/12 00:54:53;;;;;;;3.67;1.10;;;;;;;9.18;95.40;148448.75;5005025;28;20230;-55
2023/12/12 00:57:21;;;;;;;6.63;1.13;;;;;;;9.12;96.43;148436.31;5006208;28;20231;-56
2023/12/12 00:59:48;;;;;;;3.30;1.07;;;;;;;9.21;95.55;148456.22;5003618;28;20233;-57
2023/12/12 01:02:16;;;;;;;7.20;1.30;;;;;;;9.02;96.18;148411.44;5005749;28;20717;-56
2023/12/12 01:04:43;;;;;;;5.00;0.90;;;;;;;8.84;97.18;148367.91;4993123;28;20226;-56
2023/12/12 01:07:10;;;;;;;8.00;1.43;;;;;;;8.67;98.12;148328.09;5006173;28;20226;-54
2023/12/12 01:09:36;;;;;;;5.80;1.00;;;;;;;8.53;99.18;148294.53;5003441;28;20559;-57
2023/12/12 01:12:04;;;;;;;2.70;0.90;;;;;;;8.37;100.00;148254.69;4996509;28;20236;-57
2023/12/12 01:14:32;;;;;;;3.30;1.07;;;;;;;8.37;100.00;148254.69;5002779;28;20293;-57
2023/12/12 01:16:58;;;;;;;3.63;1.30;;;;;;;8.26;100.00;148228.59;5005651;28;20242;-57
2023/12/12 01:19:25;;;;;;;2.87;1.20;;;;;;;8.26;100.00;148228.59;5005315;28;20229;-57
2023/12/12 01:21:52;;;;;;;4.73;1.10;;;;;;;8.38;100.00;148257.19;4996254;28;20243;-57
2023/12/12 01:24:18;;;;;;;6.30;1.00;;;;;;;8.31;100.00;148241.03;5005040;28;20228;-57
2023/12/12 01:26:45;;;;;;;5.77;1.27;;;;;;;8.40;100.00;148262.16;5002726;28;20709;-57
2023/12/12 01:29:14;;;;;;;4.77;1.07;;;;;;;8.35;100.00;148250.97;5005235;28;20234;-57
2023/12/12 01:31:42;;;;;;;4.07;1.13;;;;;;;8.38;100.00;148257.19;5002926;28;20232;-57
2023/12/12 01:34:09;;;;;;;6.77;0.93;;;;;;;8.40;100.00;148263.41;5004327;28;20230;-57
2023/12/12 01:36:36;;;;;;;3.20;1.17;;;;;;;8.81;98.84;148360.44;5002177;28;20231;-56
2023/12/12 01:39:03;;;;;;;3.63;1.00;;;;;;;8.77;98.52;148351.75;5005413;28;20234;-56
2023/12/12 01:41:29;;;;;;;3.03;0.80;;;;;;;8.76;98.72;148348.00;5002769;28;20650;-57
2023/12/12 01:43:59;;;;;;;6.63;1.20;;;;;;;8.75;98.73;148346.78;4952832;28;20242;-57
2023/12/12 01:46:26;;;;;;;4.57;1.00;;;;;;;8.68;99.30;148330.59;4963241;28;20228;-57
2023/12/12 01:48:54;;;;;;;6.03;1.10;;;;;;;8.57;99.72;148303.22;4937656;28;20238;-57
2023/12/12 01:51:21;;;;;;;4.17;1.23;;;;;;;8.49;100.00;148284.59;4928833;28;20734;-57
2023/12/12 01:53:50;;;;;;;4.80;1.30;;;;;;;8.51;100.00;148288.28;4914363;28;20236;-56
2023/12/12 01:56:18;;;;;;;3.97;1.00;;;;;;;8.51;100.00;148288.28;4941810;28;20245;-57
2023/12/12 01:58:49;;;;;;;6.30;1.20;;;;;;;8.44;100.00;148270.88;4908806;28;20218;-55
2023/12/12 02:01:41;;;;;;;3.03;1.10;;;;;;;8.46;100.00;148277.06;4991672;28;20338;-57
2023/12/12 02:04:10;;;;;;;7.83;1.13;;;;;;;8.42;100.00;148268.41;5004764;28;20227;-57
2023/12/12 02:06:37;;;;;;;3.67;1.17;;;;;;;8.40;100.00;148263.41;4996311;28;20233;-56
2023/12/12 02:09:05;;;;;;;5.60;1.17;;;;;;;8.44;100.00;148270.88;5003800;28;20316;-57
2023/12/12 02:11:32;;;;;;;6.23;1.10;;;;;;;8.40;100.00;148262.16;5002048;28;20258;-57
2023/12/12 02:13:58;;;;;;;9.87;1.17;;;;;;;8.35;100.00;148250.97;5004265;28;20886;-57
2023/12/12 02:16:25;;;;;;;4.70;1.17;;;;;;;8.34;100.00;148248.50;5004415;28;20233;-57
2023/12/12 02:18:51;;;;;;;6.23;1.07;;;;;;;8.38;100.00;148258.44;5000946;28;20222;-57
2023/12/12 02:21:21;;;;;;;7.20;1.40;;;;;;;8.45;100.00;148273.38;5004312;28;20261;-57
2023/12/12 02:23:48;;;;;;;7.83;1.47;;;;;;;8.35;100.00;148250.97;5001991;28;20252;-57
2023/12/12 02:26:15;;;;;;;4.67;0.90;;;;;;;8.11;100.00;148193.78;5005307;28;20261;-57
2023/12/12 02:28:41;;;;;;;5.47;1.07;;;;;;;7.96;100.00;148156.47;5002144;28;20231;-57
2023/12/12 02:31:10;;;;;;;5.07;1.30;;;;;;;7.81;100.00;148121.66;5004589;28;20237;-57
2023/12/12 02:33:36;;;;;;;5.83;1.10;;;;;;;7.70;100.00;148094.31;5001222;28;20235;-57
2023/12/12 02:36:03;;;;;;;5.87;1.27;;;;;;;7.67;100.00;148088.13;5004903;28;20605;-57
2023/12/12 02:38:31;;;;;;;10.13;1.43;;;;;;;7.71;100.00;148096.78;5002235;28;20233;-57
2023/12/12 02:40:58;;;;;;;4.70;1.30;;;;;;;7.76;100.00;148109.22;5004147;28;20236;-57
2023/12/12 02:43:24;;;;;;;7.03;1.50;;;;;;;7.78;100.00;148112.97;5003165;28;20685;-58
2023/12/12 02:45:51;;;;;;;6.20;1.83;;;;;;;7.87;100.00;148135.34;5001273;28;20237;-57
2023/12/12 02:48:17;;;;;;;5.03;1.00;;;;;;;7.88;100.00;148137.84;5001740;28;20219;-56
2023/12/12 02:50:44;;;;;;;4.20;1.10;;;;;;;7.93;100.00;148150.28;5001338;28;20229;-57
2023/12/12 02:53:11;;;;;;;3.40;1.73;;;;;;;8.11;100.00;148193.78;5004126;28;20222;-57
2023/12/12 02:55:39;;;;;;;5.10;0.90;;;;;;;8.32;100.00;148242.25;5001605;28;20215;-57
2023/12/12 02:58:05;;;;;;;4.40;1.20;;;;;;;8.33;100.00;148244.75;5004797;28;20366;-57
2023/12/12 03:00:32;;;;;;;6.60;1.30;;;;;;;8.30;100.00;148238.53;5003723;28;20230;-56
2023/12/12 03:02:58;;;;;;;3.47;1.20;;;;;;;8.25;100.00;148227.34;5007343;28;20719;-56
2023/12/12 03:05:25;;;;;;;3.37;1.07;;;;;;;8.33;100.00;148246.00;5007486;28;20214;-57
2023/12/12 03:07:52;;;;;;;2.93;0.90;;;;;;;8.40;100.00;148263.41;5005437;28;20299;-58
2023/12/12 03:10:18;;;;;;;3.37;0.93;;;;;;;8.40;100.00;148262.16;5007815;28;20253;-57
2023/12/12 03:12:46;;;;;;;4.50;1.00;;;;;;;8.27;100.00;148231.09;5004559;28;20238;-56
2023/12/12 03:15:13;;;;;;;2.27;1.10;;;;;;;8.18;100.00;148208.69;5005234;28;20224;-57
2023/12/12 03:17:39;;;;;;;3.07;1.03;;;;;;;8.04;100.00;148175.09;5004246;28;20226;-57
2023/12/12 03:20:07;;;;;;;6.50;1.03;;;;;;;7.99;100.00;148163.94;5007720;28;20237;-57
2023/12/12 03:22:34;;;;;;;4.47;1.20;;;;;;;7.96;100.00;148157.69;5005125;28;20278;-56
2023/12/12 03:25:01;;;;;;;2.97;1.00;;;;;;;7.90;100.00;148141.56;5006611;28;20727;-57
2023/12/12 03:27:27;;;;;;;3.40;0.90;;;;;;;7.87;100.00;148134.09;5005621;28;20226;-56
2023/12/12 03:29:56;;;;;;;4.53;1.10;;;;;;;7.86;100.00;148131.59;5004686;28;20592;-57
2023/12/12 03:32:23;;;;;;;3.77;1.13;;;;;;;7.86;100.00;148131.59;5005229;28;20303;-57
2023/12/12 03:34:49;;;;;;;3.43;0.90;;;;;;;7.86;100.00;148131.59;5002848;28;20229;-55
2023/12/12 03:37:17;;;;;;;4.00;1.00;;;;;;;7.86;100.00;148132.88;5005167;28;20219;-57
2023/12/12 03:39:43;;;;;;;8.00;1.20;;;;;;;7.78;100.00;148114.19;5003090;28;20308;-57
2023/12/12 03:42:11;;;;;;;4.77;1.17;;;;;;;7.77;100.00;148111.72;5005353;28;20229;-56
2023/12/12 03:44:38;;;;;;;4.03;1.10;;;;;;;7.82;100.00;148124.16;5003548;28;20230;-56
2023/12/12 03:47:06;;;;;;;3.73;0.80;;;;;;;7.87;100.00;148135.34;5004869;28;20284;-57
2023/12/12 03:49:32;;;;;;;3.87;0.87;;;;;;;7.85;100.00;148129.13;5002869;28;20230;-57
2023/12/12 03:51:59;;;;;;;1.93;0.80;;;;;;;7.83;100.00;148125.41;5006646;28;20246;-57
2023/12/12 03:54:26;;;;;;;3.47;1.00;;;;;;;7.85;100.00;148130.38;5005515;28;20687;-57
2023/12/12 03:56:52;;;;;;;3.40;1.00;;;;;;;7.88;100.00;148136.56;5004366;28;20234;-57
2023/12/12 03:59:19;;;;;;;4.57;0.93;;;;;;;7.92;100.00;148147.78;5006425;28;20715;-57
2023/12/12 04:01:48;;;;;;;4.37;1.20;;;;;;;7.96;100.00;148156.47;5004040;28;20234;-56
2023/12/12 04:04:17;;;;;;;4.73;1.00;;;;;;;7.98;100.00;148161.44;5005440;28;20643;-57
2023/12/12 04:06:45;;;;;;;5.63;1.00;;;;;;;8.08;100.00;148186.31;5003780;28;20218;-58
2023/12/12 04:09:12;;;;;;;3.23;0.80;;;;;;;8.08;100.00;148186.31;5005419;28;20231;-58
2023/12/12 04:11:39;;;;;;;2.23;0.60;;;;;;;8.18;100.00;148209.91;5002724;28;20240;-57
2023/12/12 04:14:05;;;;;;;3.97;0.80;;;;;;;8.24;100.00;148224.84;5005298;28;20236;-57
2023/12/12 04:16:32;;;;;;;2.97;0.83;;;;;;;8.28;100.00;148234.78;5003370;28;20324;-57
2023/12/12 04:18:58;;;;;;;2.87;0.97;;;;;;;8.32;100.00;148243.53;5005634;28;20241;-57
2023/12/12 04:21:27;;;;;;;7.00;1.17;;;;;;;8.35;100.00;148249.72;5005411;28;20909;-56
2023/12/12 04:23:54;;;;;;;1.67;0.57;;;;;;;8.37;100.00;148255.97;5003903;28;20685;-57
2023/12/12 04:26:21;;;;;;;4.37;0.80;;;;;;;8.33;100.00;148246.00;5005835;28;20223;-57
2023/12/12 04:28:47;;;;;;;4.13;1.30;;;;;;;8.33;100.00;148244.75;5002712;28;20227;-57
2023/12/12 04:31:16;;;;;;;3.90;0.70;;;;;;;8.37;100.00;148255.97;5214840;22;20617;-56
2023/12/12 04:33:42;;;;;;;2.10;0.70;;;;;;;8.34;100.00;148248.50;5013443;28;20226;-56
2023/12/12 04:36:13;;;;;;;7.57;0.83;;;;;;;8.37;100.00;148255.97;5016630;28;20227;-56
2023/12/12 04:38:40;;;;;;;3.93;1.10;;;;;;;8.35;100.00;148249.72;5004372;28;20268;-57
2023/12/12 04:41:08;;;;;;;3.10;0.97;;;;;;;8.34;100.00;148247.22;5011923;28;20591;-56
2023/12/12 04:43:35;;;;;;;2.20;0.80;;;;;;;8.31;100.00;148239.75;5000958;28;20237;-57
2023/12/12 04:46:01;;;;;;;6.47;1.20;;;;;;;8.31;100.00;148241.03;5004686;28;20233;-57
2023/12/12 04:48:28;;;;;;;3.33;0.77;;;;;;;8.30;100.00;148238.53;5004936;28;20237;-58
2023/12/12 04:50:55;;;;;;;3.47;0.90;;;;;;;8.31;100.00;148239.75;5003507;28;20238;-57
2023/12/12 04:53:21;;;;;;;3.07;1.00;;;;;;;8.36;100.00;148253.47;5005316;28;20249;-56
2023/12/12 04:55:49;;;;;;;4.17;0.83;;;;;;;8.33;100.00;148244.75;5002617;28;20231;-57
2023/12/12 04:58:16;;;;;;;3.23;1.10;;;;;;;8.32;100.00;148243.53;5004085;28;20234;-57
2023/12/12 05:00:42;;;;;;;5.00;0.90;;;;;;;8.32;100.00;148243.53;5002115;28;20230;-58
2023/12/12 05:03:09;;;;;;;6.43;1.30;;;;;;;8.33;100.00;148246.00;5004644;28;20323;-58
2023/12/12 05:05:35;;;;;;;3.97;1.07;;;;;;;8.40;100.00;148262.16;4984178;28;20741;-58
2023/12/12 05:08:02;;;;;;;4.90;1.00;;;;;;;8.42;100.00;148268.41;5005646;28;20230;-57
2023/12/12 05:10:29;;;;;;;4.07;1.13;;;;;;;8.35;100.00;148249.72;5002658;28;20309;-57
2023/12/12 05:12:57;;;;;;;3.60;0.80;;;;;;;8.34;100.00;148247.22;4996619;28;20244;-57
2023/12/12 05:15:23;;;;;;;4.10;1.00;;;;;;;8.33;100.00;148244.75;5004221;28;20228;-58
2023/12/12 05:17:50;;;;;;;6.63;1.07;;;;;;;8.35;100.00;148249.72;4977097;28;20234;-57
2023/12/12 05:20:17;;;;;;;2.43;1.20;;;;;;;8.45;100.00;148274.59;5004675;28;20683;-56
2023/12/12 05:22:43;;;;;;;2.17;0.80;;;;;;;8.46;100.00;148275.84;5001568;28;20214;-57
2023/12/12 05:25:10;;;;;;;6.63;1.30;;;;;;;8.50;100.00;148285.81;5004600;28;20229;-57
2023/12/12 05:27:36;;;;;;;3.03;0.73;;;;;;;8.46;100.00;148275.84;5002314;28;20222;-57
2023/12/12 05:30:06;;;;;;;4.70;1.30;;;;;;;8.45;100.00;148273.38;5004671;28;20226;-57
2023/12/12 05:32:32;;;;;;;5.67;1.10;;;;;;;8.45;100.00;148273.38;5002009;28;20532;-58
2023/12/12 05:34:59;;;;;;;6.10;1.40;;;;;;;8.41;100.00;148264.63;4986352;28;20329;-58
2023/12/12 05:37:26;;;;;;;4.17;1.23;;;;;;;8.35;100.00;148250.97;5004675;28;20217;-57
2023/12/12 05:39:52;;;;;;;5.53;1.40;;;;;;;8.30;100.00;148238.53;5001278;28;20635;-58
2023/12/12 05:42:19;;;;;;;6.17;1.30;;;;;;;8.28;100.00;148234.78;5003793;28;20233;-57
2023/12/12 05:44:46;;;;;;;3.10;1.10;;;;;;;8.30;100.00;148237.28;5001943;28;20236;-57
2023/12/12 05:47:14;;;;;;;4.20;1.10;;;;;;;8.34;100.00;148248.50;4994592;28;20222;-57
2023/12/12 05:49:41;;;;;;;4.73;1.00;;;;;;;8.31;100.00;148241.03;5001758;28;20237;-57
2023/12/12 05:52:08;;;;;;;4.60;0.70;;;;;;;8.35;100.00;148249.72;5004091;28;20237;-57
2023/12/12 05:54:35;;;;;;;3.83;1.00;;;;;;;8.38;100.00;148257.19;5002009;28;20248;-58
2023/12/12 05:57:01;;;;;;;4.83;0.80;;;;;;;8.38;100.00;148257.19;5004773;28;20245;-58
2023/12/12 05:59:28;;;;;;;3.50;1.30;;;;;;;8.40;100.00;148263.41;5002988;28;20288;-58
2023/12/12 06:01:55;;;;;;;3.97;1.10;;;;;;;8.39;100.00;148259.66;4997482;28;20226;-57
2023/12/12 06:04:23;;;;;;;6.13;1.67;;;;;;;8.42;100.00;148268.41;5004812;28;20259;-58
2023/12/12 06:06:49;;;;;;;6.07;1.87;;;;;;;8.44;100.00;148272.09;5001838;28;20942;-58
2023/12/12 06:09:16;;;;;;;4.50;2.10;;;;;;;8.47;100.00;148278.34;5003738;28;20222;-58
2023/12/12 06:11:43;;;;;;;4.50;1.77;;;;;;;8.44;100.00;148272.09;5001174;28;20322;-57
2023/12/12 06:14:10;;;;;;;7.43;1.50;;;;;;;8.46;100.00;148275.84;5002393;28;20700;-57
2023/12/12 06:16:37;;;;;;;3.07;1.60;;;;;;;8.44;100.00;148272.09;5000895;28;20240;-58
2023/12/12 06:19:05;;;;;;;4.00;1.23;;;;;;;8.46;100.00;148277.06;5004078;28;20697;-58
2023/12/12 06:21:33;;;;;;;3.40;0.90;;;;;;;8.52;100.00;148290.78;4999464;28;20666;-57
2023/12/12 06:24:01;;;;;;;4.00;1.07;;;;;;;8.51;100.00;148289.56;5003680;28;20248;-58
2023/12/12 06:26:28;;;;;;;0.97;0.60;;;;;;;8.54;100.00;148295.75;5003453;28;20222;-58
2023/12/12 06:28:55;;;;;;;1.83;0.90;;;;;;;8.55;100.00;148298.25;4999196;28;20245;-57
2023/12/12 06:31:22;;;;;;;2.50;0.97;;;;;;;8.56;100.00;148300.72;5003891;28;20320;-57
2023/12/12 06:33:49;;;;;;;3.93;2.27;;;;;;;8.56;100.00;148300.72;5000205;28;21605;-57
2023/12/12 06:36:16;;;;;;;7.07;3.90;;;;;;;8.53;100.00;148293.28;5004863;28;20238;-58
2023/12/12 06:38:44;;;;;;;3.97;3.10;;;;;;;8.53;100.00;148293.28;5005243;28;20253;-57
2023/12/12 06:41:11;;;;;;;4.87;2.20;;;;;;;8.50;100.00;148285.81;5007955;28;20230;-57
2023/12/12 06:43:37;;;;;;;5.07;2.00;;;;;;;8.49;100.00;148284.59;5004871;28;20303;-57
2023/12/12 06:46:04;;;;;;;3.10;1.40;;;;;;;8.50;100.00;148287.06;5007986;28;20707;-58
2023/12/12 06:48:31;;;;;;;4.23;1.40;;;;;;;8.52;100.00;148290.78;5005670;28;20226;-57
2023/12/12 06:50:57;;;;;;;5.33;1.20;;;;;;;8.50;100.00;148287.06;4989323;28;20245;-57
2023/12/12 06:53:24;;;;;;;3.97;1.03;;;;;;;8.48;100.00;148282.06;4990057;28;20232;-57
2023/12/12 06:55:52;;;;;;;3.27;2.23;;;;;;;8.52;100.00;148290.78;5004835;28;20237;-57
2023/12/12 06:58:18;;;;;;;6.10;1.60;;;;;;;8.53;100.00;148294.53;5004889;28;20709;-57
2023/12/12 07:00:45;;;;;;;3.47;1.67;;;;;;;8.60;100.00;148309.47;5004012;28;20223;-58
2023/12/12 07:03:12;;;;;;;4.25;1.17;;;;;;;8.65;100.00;148321.91;5006236;28;21267;-57
2023/12/12 07:05:39;;;;;;;5.73;1.60;;;;;;;8.61;100.00;148313.19;5003529;28;20222;-57
2023/12/12 07:08:06;;;;;;;7.80;4.63;;;;;;;8.59;100.00;148306.97;5006829;28;20601;-57
2023/12/12 07:10:32;;;;;;;7.70;3.80;;;;;;;8.61;100.00;148311.94;5002375;28;20250;-56
2023/12/12 07:13:00;;;;;;;4.80;3.63;;;;;;;8.60;100.00;148310.69;5006876;28;20232;-57
2023/12/12 07:15:28;;;;;;;6.67;4.17;;;;;;;8.63;100.00;148318.16;5005816;28;20222;-57
2023/12/12 07:17:55;;;;;;;7.90;3.97;;;;;;;8.62;100.00;148315.66;5005117;28;20234;-56
2023/12/12 07:20:21;;;;;;;6.47;4.03;;;;;;;8.63;100.00;148318.16;5006627;28;20227;-56
2023/12/12 07:22:48;;;;;;;7.20;4.73;;;;;;;8.64;100.00;148320.63;5004346;28;20229;-55
2023/12/12 07:25:15;;;;;;;8.27;4.63;;;;;;;8.71;100.00;148336.84;5006018;28;20215;-57
2023/12/12 07:27:41;;;;;;;9.67;4.50;;;;;;;8.67;100.00;148326.88;5003808;28;20882;-56
2023/12/12 07:30:11;;;;;;;5.73;3.90;;;;;;;8.67;100.00;148326.88;5006477;28;20693;-56
2023/12/12 07:32:38;;;;;;;4.73;3.30;;;;;;;8.71;100.00;148336.84;5003754;28;20374;-56
2023/12/12 07:35:05;;;;;;;6.53;4.47;;;;;;;8.73;100.00;148340.53;4989444;28;20228;-56
2023/12/12 07:37:32;;;;;;;7.20;4.00;;;;;;;8.75;100.00;148345.50;4988683;28;20697;-55
2023/12/12 07:39:59;;;;;;;6.43;3.97;;;;;;;8.79;100.00;148356.72;5004992;28;20239;-57
2023/12/12 07:42:25;;;;;;;8.53;3.30;;;;;;;8.80;100.00;148359.22;5004554;28;20741;-56
2023/12/12 07:44:52;;;;;;;6.70;2.60;;;;;;;8.87;100.00;148375.38;5003745;28;20230;-57
2023/12/12 07:47:20;;;;;;;6.70;2.70;;;;;;;8.89;100.00;148380.34;5005226;28;20301;-57
2023/12/12 07:49:47;;;;;;;5.80;2.83;;;;;;;8.92;100.00;148386.59;5002245;28;20313;-56
2023/12/12 07:52:13;;;;;;;7.03;2.83;;;;;;;8.93;100.00;148389.09;5005631;28;20238;-57
2023/12/12 07:54:40;;;;;;;5.97;3.50;;;;;;;8.94;100.00;148392.78;5003305;28;20564;-56
2023/12/12 07:57:07;;;;;;;7.73;5.23;;;;;;;8.93;100.00;148390.31;5006939;28;20236;-57
2023/12/12 07:59:33;;;;;;;8.50;4.20;;;;;;;8.99;100.00;148404.00;5003561;28;20361;-55
2023/12/12 08:02:00;;;;;;;6.50;3.93;;;;;;;8.98;100.00;148402.75;5006144;28;20231;-55
2023/12/12 08:04:28;;;;;;;8.30;4.30;;;;;;;8.97;100.00;148400.25;5004918;28;20631;-55
2023/12/12 08:06:56;;;;;;;9.27;4.00;;;;;;;8.98;100.00;148402.75;5004300;28;20245;-56
2023/12/12 08:09:23;;;;;;;8.23;4.70;;;;;;;8.98;100.00;148402.75;5004802;28;20219;-57
2023/12/12 08:11:50;;;;;;;7.90;4.73;;;;;;;9.11;100.00;148432.63;5003681;28;20234;-57
2023/12/12 08:14:17;;;;;;;7.27;3.80;;;;;;;9.14;100.00;148440.06;5005882;28;20226;-56
2023/12/12 08:16:43;;;;;;;7.70;4.83;;;;;;;9.18;100.00;148450.03;5003352;28;20402;-57
2023/12/12 08:19:10;;;;;;;9.23;4.93;;;;;;;9.23;100.00;148462.47;4977330;28;20219;-56
2023/12/12 08:21:38;;;;;;;12.23;5.63;;;;;;;9.32;100.00;148483.59;5001890;28;20810;-57
2023/12/12 08:24:05;;;;;;;13.83;4.43;;;;;;;9.44;100.00;148512.25;5005073;28;20231;-57
2023/12/12 08:26:40;;;;;;;8.70;4.73;;;;;;;9.44;100.00;148513.47;5001889;28;20235;-57
2023/12/12 08:29:06;;;;;;;6.23;3.80;;;;;;;9.49;100.00;148524.69;5005106;28;20223;-57
2023/12/12 08:31:34;;;;;;;9.40;5.33;;;;;;;9.50;100.00;148527.19;5002179;28;20228;-57
2023/12/12 08:34:01;;;;;;;13.17;6.80;;;;;;;9.54;100.00;148537.09;5004326;28;20262;-57
2023/12/12 08:36:28;;;;;;;10.03;5.90;;;;;;;9.53;100.00;148534.66;5005961;28;20238;-56
2023/12/12 08:38:58;;;;;;;10.63;4.60;;;;;;;9.55;100.00;148539.59;5003107;28;20831;-57
2023/12/12 08:41:25;;;;;;;9.47;4.87;;;;;;;9.64;100.00;148559.50;5005677;28;20320;-54
2023/12/12 08:43:52;;;;;;;6.77;4.63;;;;;;;9.67;100.00;148566.97;5003049;28;20227;-56
2023/12/12 08:46:21;;;;;;;10.97;4.33;;;;;;;9.71;100.00;148576.94;5006143;28;20232;-54
2023/12/12 08:48:48;;;;;;;7.20;3.70;;;;;;;9.74;100.00;148585.66;5001815;28;20245;-57
2023/12/12 08:51:15;;;;;;;7.27;3.70;;;;;;;9.71;100.00;148578.22;5004092;28;20362;-56
2023/12/12 08:53:41;;;;;;;4.47;3.00;;;;;;;9.71;100.00;148578.22;5003057;28;20222;-56
2023/12/12 08:56:16;;;;;;;8.20;3.03;;;;;;;9.70;100.00;148574.44;5005076;28;20234;-54
2023/12/12 08:58:43;;;;;;;94.37;48.10;;;;;;;9.72;100.00;148580.69;5001351;28;20229;-54
2023/12/12 09:01:09;;;;;;;18.80;9.37;;;;;;;9.71;100.00;148576.94;5003160;28;20234;-55
2023/12/12 09:03:36;;;;;;;15.33;9.23;;;;;;;9.74;100.00;148585.66;4994094;28;20225;-57
2023/12/12 09:06:03;;;;;;;21.37;10.30;;;;;;;9.71;100.00;148576.94;5005293;28;20213;-56
2023/12/12 09:08:30;;;;;;;38.40;24.20;;;;;;;9.74;100.00;148585.66;5004959;28;20722;-57
2023/12/12 09:10:59;;;;;;;13.93;9.60;;;;;;;9.73;100.00;148581.91;5002359;28;20247;-57
2023/12/12 09:13:27;;;;;;;9.40;4.63;;;;;;;9.71;100.00;148578.22;5004593;28;20234;-56
2023/12/12 09:15:54;;;;;;;7.93;6.27;;;;;;;9.65;100.00;148563.25;5002796;28;20674;-56
2023/12/12 09:18:28;;;;;;;10.53;4.27;;;;;;;9.66;100.00;148564.50;5040654;28;21095;-56
2023/12/12 09:20:55;;;;;;;9.50;4.80;;;;;;;9.60;100.00;148550.81;5031687;28;20355;-55
2023/12/12 09:23:22;;;;;;;9.17;3.83;;;;;;;9.53;100.00;148534.66;5058181;28;20315;-56
2023/12/12 09:25:50;;;;;;;6.20;2.73;;;;;;;9.50;100.00;148525.94;5064828;28;20675;-54
2023/12/12 09:28:16;;;;;;;6.80;3.20;;;;;;;9.51;100.00;148528.41;5068456;28;20233;-53
2023/12/12 09:30:43;;;;;;;5.17;2.00;;;;;;;9.53;100.00;148534.66;5065287;28;20219;-54
2023/12/12 09:33:10;;;;;;;2.73;1.83;;;;;;;9.55;100.00;148539.59;5069966;28;20326;-55
2023/12/12 09:35:38;;;;;;;8.43;2.93;;;;;;;9.55;100.00;148539.59;5069037;28;20833;-54
2023/12/12 09:38:05;;;;;;;11.17;5.77;;;;;;;9.56;100.00;148540.88;5086823;28;20231;-56
2023/12/12 09:40:34;;;;;;;12.03;7.50;;;;;;;9.46;100.00;148517.22;5069542;28;20293;-56
2023/12/12 09:43:03;;;;;;;10.13;5.50;;;;;;;9.50;100.00;148527.19;5068142;28;20232;-55
2023/12/12 09:45:31;;;;;;;11.00;6.33;;;;;;;9.48;100.00;148522.22;5065883;28;20437;-56
2023/12/12 09:47:58;;;;;;;8.67;4.50;;;;;;;9.49;100.00;148524.69;5067122;28;20700;-54
2023/12/12 09:50:27;;;;;;;9.47;5.10;;;;;;;9.50;100.00;148527.19;5069594;28;20321;-55
2023/12/12 09:52:57;;;;;;;8.13;5.13;;;;;;;9.55;100.00;148539.59;5066700;28;20706;-55
2023/12/12 09:55:25;;;;;;;8.10;4.93;;;;;;;9.53;100.00;148533.41;5067491;28;20237;-56
2023/12/12 09:57:52;;;;;;;5.70;4.50;;;;;;;9.57;100.00;148544.56;5067823;28;20250;-56
2023/12/12 10:00:21;;;;;;;10.40;5.57;;;;;;;9.49;100.00;148523.44;5082847;28;20236;-54
2023/12/12 10:02:50;;;;;;;6.57;3.00;;;;;;;9.63;100.00;148558.28;5062256;28;20218;-55
2023/12/12 10:05:17;;;;;;;1.43;1.00;;;;;;;9.78;100.00;148593.16;5068924;28;20991;-56
2023/12/12 10:07:43;;;;;;;1.50;0.97;;;;;;;10.03;100.00;148654.13;5067718;28;20219;-54
2023/12/12 10:10:14;;;;;;;0.70;0.40;;;;;;;10.30;100.00;148718.88;5067141;28;20239;-54
2023/12/12 10:12:42;;;;;;;0.60;0.50;;;;;;;10.47;100.00;148760.00;5064735;28;20232;-55
2023/12/12 10:15:23;;;;;;;0.30;0.20;;;;;;;10.66;100.00;148804.84;5066241;28;20280;-54
2023/12/12 10:17:49;;;;;;;9.77;4.63;;;;;;;10.75;100.00;148828.50;5063188;28;20232;-56
2023/12/12 10:20:25;;;;;;;4.13;2.27;;;;;;;10.88;100.00;148858.38;5066074;28;20220;-54
2023/12/12 10:22:52;;;;;;;8.47;2.03;;;;;;;10.94;100.00;148873.34;5062932;28;20238;-56
2023/12/12 10:25:22;;;;;;;1.00;0.80;;;;;;;10.98;100.00;148882.06;5070207;28;20239;-55
2023/12/12 10:27:52;;;;;;;0.20;0.20;;;;;;;11.07;100.00;148905.72;5062242;28;20722;-55
2023/12/12 10:30:20;;;;;;;0.80;0.80;;;;;;;11.17;100.00;148929.38;5054176;28;20226;-54
2023/12/12 10:32:49;;;;;;;0.20;0.20;;;;;;;11.22;100.00;148941.84;5053930;28;20715;-55
2023/12/12 10:35:16;;;;;;;2.20;0.40;;;;;;;11.30;100.00;148959.28;5057553;28;20241;-55
2023/12/12 10:37:43;;;;;;;0.20;0.20;;;;;;;11.19;100.00;148934.38;5054309;28;20248;-56
2023/12/12 10:40:14;;;;;;;0.47;0.20;;;;;;;11.33;100.00;148968.03;5055516;28;20580;-56
2023/12/12 10:42:42;;;;;;;1.67;1.10;;;;;;;11.22;100.00;148941.84;5053609;28;20237;-56
2023/12/12 10:45:11;;;;;;;2.57;0.30;;;;;;;11.36;100.00;148974.25;5043879;28;20240;-55
2023/12/12 10:47:41;;;;;;;0.30;0.10;;;;;;;11.40;100.00;148984.22;5049232;28;20236;-56
2023/12/12 10:50:13;;;;;;;0.53;0.20;;;;;;;11.45;100.00;148996.66;5052842;28;20220;-56
2023/12/12 10:52:40;;;;;;;0.60;0.50;;;;;;;11.52;100.00;149014.13;5049689;28;20218;-56
2023/12/12 10:55:09;;;;;;;0.10;0.10;;;;;;;11.55;100.00;149020.38;5054165;28;20685;-54
2023/12/12 10:57:38;;;;;;;0.20;0.10;;;;;;;11.52;100.00;149012.91;5050486;28;20261;-53
2023/12/12 11:00:11;;;;;;;1.73;1.03;;;;;;;11.47;100.00;149000.44;5056395;28;20232;-56
2023/12/12 11:02:39;;;;;;;1.93;1.23;;;;;;;11.42;100.00;148987.97;5052933;28;20225;-56
2023/12/12 11:05:08;;;;;;;3.30;1.90;;;;;;;11.34;100.00;148969.25;5056967;28;20296;-57
2023/12/12 11:07:36;;;;;;;1.57;0.93;;;;;;;11.33;100.00;148968.03;5053531;28;20225;-57
2023/12/12 11:10:07;;;;;;;1.37;0.67;;;;;;;11.31;100.00;148961.78;5053065;28;20232;-55
2023/12/12 11:12:35;;;;;;;4.17;3.07;;;;;;;11.30;100.00;148960.56;5053172;28;20958;-54
2023/12/12 11:15:04;;;;;;;1.90;0.90;;;;;;;11.34;100.00;148970.53;5054394;28;20230;-56
2023/12/12 11:17:34;;;;;;;0.60;0.50;;;;;;;11.37;100.00;148978.00;5051925;28;20241;-57
2023/12/12 11:20:10;;;;;;;0.70;0.70;;;;;;;11.36;100.00;148975.50;5050906;28;20243;-57
2023/12/12 11:22:42;;;;;;;0.57;0.40;;;;;;;11.37;100.00;148978.00;5051289;28;20581;-57
2023/12/12 11:25:10;;;;;;;0.20;0.10;;;;;;;11.32;100.00;148965.53;5052754;28;20225;-56